createdAt,value
2017-01-12T00:00:07.856Z,96.58
2017-01-12T00:01:08.613Z,97.03
2017-01-12T00:02:08.131Z,97.58
2017-01-12T00:03:07.937Z,97.68
2017-01-12T00:04:07.797Z,98.18
2017-01-12T00:05:18.282Z,97.54
2017-01-12T00:06:08.010Z,97.47
2017-01-12T00:07:07.445Z,97.87
2017-01-12T00:08:07.945Z,96.77
2017-01-12T00:09:07.560Z,97.51
2017-01-12T00:10:08.130Z,97.42
2017-01-12T00:11:08.761Z,97.69
2017-01-12T00:12:08.269Z,98.03
2017-01-12T00:13:07.755Z,97.84
2017-01-12T00:14:08.235Z,96.94
2017-01-12T00:15:07.785Z,97.39
2017-01-12T00:16:08.423Z,97.20
2017-01-12T00:17:08.058Z,97.69
2017-01-12T00:18:08.287Z,97.87
2017-01-12T00:19:08.089Z,97.85
2017-01-12T00:20:07.549Z,97.90
2017-01-12T00:21:07.865Z,97.92
2017-01-12T00:22:08.519Z,97.17
2017-01-12T00:23:07.980Z,97.26
2017-01-12T00:24:07.504Z,96.76
2017-01-12T00:25:07.962Z,96.52
2017-01-12T00:26:07.437Z,96.57
2017-01-12T00:27:08.107Z,96.52
2017-01-12T00:28:07.681Z,96.91
2017-01-12T00:29:08.429Z,96.57
2017-01-12T00:30:07.968Z,97.32
2017-01-12T00:31:07.701Z,97.51
2017-01-12T00:32:07.522Z,97.48
2017-01-12T00:33:07.939Z,97.18
2017-01-12T00:34:07.810Z,97.80
2017-01-12T00:35:08.326Z,96.70
2017-01-12T00:36:07.985Z,96.13
2017-01-12T00:37:07.726Z,96.26
2017-01-12T00:38:08.635Z,95.52
2017-01-12T00:39:08.313Z,96.29
2017-01-12T00:40:08.141Z,96.20
2017-01-12T00:41:08.075Z,96.23
2017-01-12T00:42:07.848Z,96.22
2017-01-12T00:43:08.360Z,96.27
2017-01-12T00:44:07.715Z,95.84
2017-01-12T00:45:08.185Z,95.43
2017-01-12T00:46:07.682Z,95.75
2017-01-12T00:47:08.246Z,95.81
2017-01-12T00:48:07.492Z,96.10
2017-01-12T00:49:08.407Z,96.90
2017-01-12T00:50:08.198Z,96.70
2017-01-12T00:51:08.072Z,96.80
2017-01-12T00:52:07.736Z,96.52
2017-01-12T00:53:08.384Z,96.58
2017-01-12T00:54:07.952Z,96.11
2017-01-12T00:55:07.463Z,96.70
2017-01-12T00:56:08.133Z,96.71
2017-01-12T00:57:08.007Z,96.99
2017-01-12T00:58:07.432Z,97.52
2017-01-12T00:59:08.334Z,97.68
2017-01-12T01:00:08.165Z,97.77
2017-01-12T01:01:07.638Z,97.00
2017-01-12T01:02:08.122Z,96.86
2017-01-12T01:03:07.997Z,98.11
2017-01-12T01:04:08.016Z,97.87
2017-01-12T01:05:17.481Z,98.46
2017-01-12T01:06:07.921Z,98.59
2017-01-12T01:07:08.260Z,97.91
2017-01-12T01:08:07.550Z,97.46
2017-01-12T01:09:08.246Z,97.82
2017-01-12T01:10:08.261Z,98.51
2017-01-12T01:11:07.756Z,98.50
2017-01-12T01:12:08.266Z,98.24
2017-01-12T01:13:07.844Z,98.51
2017-01-12T01:14:07.437Z,98.76
2017-01-12T01:15:08.002Z,98.27
2017-01-12T01:16:07.612Z,97.95
2017-01-12T01:17:08.276Z,97.93
2017-01-12T01:18:07.611Z,97.95
2017-01-12T01:19:08.180Z,98.11
2017-01-12T01:20:07.709Z,97.64
2017-01-12T01:21:08.221Z,97.55
2017-01-12T01:22:07.733Z,97.25
2017-01-12T01:23:08.309Z,97.47
2017-01-12T01:24:08.084Z,97.71
2017-01-12T01:25:07.947Z,97.86
2017-01-12T01:26:07.469Z,97.29
2017-01-12T01:27:08.321Z,97.44
2017-01-12T01:28:07.804Z,97.49
2017-01-12T01:29:08.323Z,97.24
2017-01-12T01:30:08.180Z,97.89
2017-01-12T01:31:07.632Z,97.74
2017-01-12T01:32:08.047Z,97.20
2017-01-12T01:33:08.587Z,97.37
2017-01-12T01:34:08.570Z,97.27
2017-01-12T01:35:08.139Z,96.93
2017-01-12T01:36:07.618Z,96.65
2017-01-12T01:37:08.244Z,96.44
2017-01-12T01:38:08.018Z,96.61
2017-01-12T01:39:07.816Z,96.46
2017-01-12T01:40:08.414Z,96.56
2017-01-12T01:41:08.240Z,97.50
2017-01-12T01:42:07.683Z,96.93
2017-01-12T01:43:07.798Z,96.63
2017-01-12T01:44:07.669Z,97.09
2017-01-12T01:45:08.228Z,96.90
2017-01-12T01:46:07.697Z,97.27
2017-01-12T01:47:08.451Z,96.81
2017-01-12T01:48:08.277Z,97.01
2017-01-12T01:49:07.944Z,97.19
2017-01-12T01:50:07.986Z,96.73
2017-01-12T01:51:07.601Z,97.04
2017-01-12T01:52:08.073Z,97.15
2017-01-12T01:53:07.708Z,97.04
2017-01-12T01:54:07.547Z,97.06
2017-01-12T01:55:07.474Z,96.70
2017-01-12T01:56:08.437Z,96.86
2017-01-12T01:57:08.051Z,97.01
2017-01-12T01:58:07.898Z,96.38
2017-01-12T01:59:08.376Z,96.13
2017-01-12T02:00:07.905Z,96.37
2017-01-12T02:01:08.293Z,95.90
2017-01-12T02:02:07.831Z,95.73
2017-01-12T02:03:07.732Z,95.12
2017-01-12T02:04:08.586Z,96.10
2017-01-12T02:05:18.090Z,96.23
2017-01-12T02:06:07.576Z,95.64
2017-01-12T02:07:08.631Z,95.63
2017-01-12T02:08:08.140Z,95.31
2017-01-12T02:09:07.695Z,95.20
2017-01-12T02:10:08.466Z,95.05
2017-01-12T02:11:08.492Z,94.80
2017-01-12T02:12:08.093Z,94.76
2017-01-12T02:13:08.098Z,94.26
2017-01-12T02:14:08.366Z,94.24
2017-01-12T02:15:08.110Z,93.37
2017-01-12T02:16:07.732Z,93.86
2017-01-12T02:17:08.403Z,93.77
2017-01-12T02:18:07.921Z,94.17
2017-01-12T02:19:08.422Z,93.93
2017-01-12T02:20:07.931Z,93.70
2017-01-12T02:21:07.602Z,93.62
2017-01-12T02:22:08.473Z,93.08
2017-01-12T02:23:07.949Z,93.52
2017-01-12T02:24:08.125Z,93.06
2017-01-12T02:25:07.812Z,93.36
2017-01-12T02:26:07.893Z,93.50
2017-01-12T02:27:08.429Z,92.71
2017-01-12T02:28:08.389Z,92.97
2017-01-12T02:29:08.102Z,92.82
2017-01-12T02:30:07.574Z,92.43
2017-01-12T02:31:08.144Z,91.71
2017-01-12T02:32:07.988Z,91.34
2017-01-12T02:33:07.826Z,91.40
2017-01-12T02:34:08.494Z,91.43
2017-01-12T02:35:08.180Z,90.77
2017-01-12T02:36:08.248Z,90.82
2017-01-12T02:37:07.883Z,91.56
2017-01-12T02:38:07.726Z,91.68
2017-01-12T02:39:08.445Z,90.69
2017-01-12T02:40:07.945Z,91.11
2017-01-12T02:41:07.585Z,90.78
2017-01-12T02:42:08.185Z,90.54
2017-01-12T02:43:08.621Z,90.61
2017-01-12T02:44:08.382Z,90.35
2017-01-12T02:45:07.981Z,89.72
2017-01-12T02:46:07.908Z,89.13
2017-01-12T02:47:08.526Z,89.65
2017-01-12T02:48:08.193Z,90.20
2017-01-12T02:49:07.644Z,89.71
2017-01-12T02:50:08.312Z,89.80
2017-01-12T02:51:07.906Z,89.79
2017-01-12T02:52:07.747Z,89.82
2017-01-12T02:53:08.282Z,89.43
2017-01-12T02:54:07.529Z,90.23
2017-01-12T02:55:07.810Z,89.98
2017-01-12T02:56:08.498Z,90.07
2017-01-12T02:57:08.358Z,89.02
2017-01-12T02:58:07.851Z,89.42
2017-01-12T02:59:08.507Z,89.08
2017-01-12T03:00:08.316Z,89.53
2017-01-12T03:01:07.937Z,89.41
2017-01-12T03:02:08.164Z,89.63
2017-01-12T03:03:07.713Z,88.92
2017-01-12T03:04:08.382Z,89.33
2017-01-12T03:05:18.050Z,89.49
2017-01-12T03:06:07.515Z,89.89
2017-01-12T03:07:08.279Z,89.95
2017-01-12T03:08:08.293Z,90.20
2017-01-12T03:09:07.870Z,90.16
2017-01-12T03:10:08.498Z,89.70
2017-01-12T03:11:08.485Z,90.11
2017-01-12T03:12:07.800Z,90.40
2017-01-12T03:13:08.229Z,90.51
2017-01-12T03:14:07.732Z,90.55
2017-01-12T03:15:08.094Z,90.10
2017-01-12T03:16:07.753Z,90.07
2017-01-12T03:17:08.543Z,90.53
2017-01-12T03:18:08.215Z,90.74
2017-01-12T03:19:08.054Z,90.92
2017-01-12T03:20:07.878Z,91.29
2017-01-12T03:21:08.354Z,90.98
2017-01-12T03:22:07.910Z,90.64
2017-01-12T03:23:07.561Z,90.94
2017-01-12T03:24:07.897Z,91.08
2017-01-12T03:25:08.700Z,91.53
2017-01-12T03:26:08.225Z,92.12
2017-01-12T03:27:08.149Z,92.68
2017-01-12T03:28:08.339Z,92.60
2017-01-12T03:29:07.572Z,92.07
2017-01-12T03:30:07.666Z,92.14
2017-01-12T03:31:08.543Z,91.91
2017-01-12T03:32:08.405Z,92.86
2017-01-12T03:33:08.328Z,92.90
2017-01-12T03:34:07.823Z,92.85
2017-01-12T03:35:08.236Z,92.59
2017-01-12T03:36:07.749Z,92.76
2017-01-12T03:37:08.285Z,92.35
2017-01-12T03:38:08.333Z,92.56
2017-01-12T03:39:07.812Z,93.01
2017-01-12T03:40:08.570Z,92.94
2017-01-12T03:41:08.069Z,92.97
2017-01-12T03:42:07.826Z,93.09
2017-01-12T03:43:08.456Z,92.70
2017-01-12T03:44:07.932Z,93.03
2017-01-12T03:45:08.259Z,93.58
2017-01-12T03:46:07.957Z,93.48
2017-01-12T03:47:07.427Z,93.94
2017-01-12T03:48:07.698Z,93.99
2017-01-12T03:49:08.175Z,94.27
2017-01-12T03:50:07.845Z,93.94
2017-01-12T03:51:08.320Z,94.27
2017-01-12T03:52:07.826Z,93.84
2017-01-12T03:53:08.354Z,93.78
2017-01-12T03:54:08.372Z,93.85
2017-01-12T03:55:08.011Z,93.42
2017-01-12T03:56:07.774Z,93.35
2017-01-12T03:57:07.982Z,93.72
2017-01-12T03:58:08.016Z,92.89
2017-01-12T03:59:07.632Z,93.86
2017-01-12T04:00:08.343Z,93.59
2017-01-12T04:01:07.813Z,93.97
2017-01-12T04:02:07.603Z,93.71
2017-01-12T04:03:08.158Z,94.13
2017-01-12T04:04:07.684Z,93.72
2017-01-12T04:05:08.618Z,93.97
2017-01-12T04:06:08.312Z,93.34
2017-01-12T04:07:07.802Z,94.18
2017-01-12T04:08:08.207Z,94.40
2017-01-12T04:09:07.652Z,93.90
2017-01-12T04:10:07.591Z,93.97
2017-01-12T04:11:07.647Z,94.17
2017-01-12T04:12:07.637Z,94.97
2017-01-12T04:13:08.535Z,94.73
2017-01-12T04:14:08.016Z,94.89
2017-01-12T04:15:07.657Z,94.42
2017-01-12T04:16:08.476Z,94.37
2017-01-12T04:17:08.332Z,95.20
2017-01-12T04:18:07.968Z,94.84
2017-01-12T04:19:07.521Z,94.58
2017-01-12T04:20:08.437Z,94.76
2017-01-12T04:21:08.307Z,94.36
2017-01-12T04:22:07.808Z,94.29
2017-01-12T04:23:08.239Z,94.03
2017-01-12T04:24:07.686Z,93.47
2017-01-12T04:25:08.221Z,93.48
2017-01-12T04:26:08.034Z,93.06
2017-01-12T04:27:07.712Z,93.05
2017-01-12T04:28:08.409Z,93.42
2017-01-12T04:29:08.626Z,93.21
2017-01-12T04:30:08.199Z,92.85
2017-01-12T04:31:08.198Z,93.01
2017-01-12T04:32:07.482Z,92.51
2017-01-12T04:33:08.031Z,92.57
2017-01-12T04:34:08.543Z,92.46
2017-01-12T04:35:18.152Z,92.42
2017-01-12T04:36:07.580Z,92.22
2017-01-12T04:37:07.830Z,91.43
2017-01-12T04:38:08.427Z,92.05
2017-01-12T04:39:08.042Z,92.19
2017-01-12T04:40:07.845Z,92.37
2017-01-12T04:41:08.676Z,91.98
2017-01-12T04:42:08.457Z,92.82
2017-01-12T04:43:07.967Z,92.98
2017-01-12T04:44:07.534Z,92.82
2017-01-12T04:45:08.439Z,91.98
2017-01-12T04:46:07.903Z,91.57
2017-01-12T04:47:08.699Z,91.08
2017-01-12T04:48:08.311Z,91.41
2017-01-12T04:49:07.894Z,91.41
2017-01-12T04:50:08.197Z,91.48
2017-01-12T04:51:07.780Z,91.95
2017-01-12T04:52:08.623Z,91.73
2017-01-12T04:53:08.217Z,91.11
2017-01-12T04:54:08.045Z,91.60
2017-01-12T04:55:07.537Z,91.24
2017-01-12T04:56:08.050Z,91.41
2017-01-12T04:57:08.044Z,91.81
2017-01-12T04:58:07.612Z,92.02
2017-01-12T04:59:07.543Z,91.86
2017-01-12T05:00:08.032Z,91.86
2017-01-12T05:01:07.570Z,91.77
2017-01-12T05:02:08.452Z,92.27
2017-01-12T05:03:08.083Z,92.12
2017-01-12T05:04:07.744Z,92.18
2017-01-12T05:05:08.220Z,92.61
2017-01-12T05:06:07.752Z,92.55
2017-01-12T05:07:08.583Z,92.91
2017-01-12T05:08:08.486Z,92.58
2017-01-12T05:09:07.978Z,92.19
2017-01-12T05:10:07.805Z,91.69
2017-01-12T05:11:07.996Z,92.08
2017-01-12T05:12:07.469Z,91.89
2017-01-12T05:13:07.975Z,91.97
2017-01-12T05:14:07.788Z,91.64
2017-01-12T05:15:09.046Z,91.70
2017-01-12T05:16:07.537Z,92.27
2017-01-12T05:17:07.836Z,91.82
2017-01-12T05:18:08.353Z,92.40
2017-01-12T05:19:07.884Z,91.75
2017-01-12T05:20:07.500Z,91.47
2017-01-12T05:21:08.118Z,91.55
2017-01-12T05:22:07.576Z,91.42
2017-01-12T05:23:28.826Z,91.65
2017-01-12T05:24:08.329Z,91.29
2017-01-12T05:25:10.789Z,91.09
2017-01-12T05:26:08.057Z,91.49
2017-01-12T05:27:08.248Z,91.19
2017-01-12T05:28:07.755Z,91.77
2017-01-12T05:29:07.770Z,91.92
2017-01-12T05:30:08.260Z,90.85
2017-01-12T05:31:07.649Z,91.25
2017-01-12T05:32:08.434Z,91.33
2017-01-12T05:33:08.491Z,91.00
2017-01-12T05:34:08.114Z,90.85
2017-01-12T05:36:17.813Z,90.33
2017-01-12T05:37:08.636Z,91.06
2017-01-12T05:38:08.460Z,90.65
2017-01-12T05:39:08.341Z,90.85
2017-01-12T05:40:07.808Z,90.45
2017-01-12T05:41:07.772Z,90.41
2017-01-12T05:42:08.296Z,89.80
2017-01-12T05:43:07.800Z,90.25
2017-01-12T05:44:08.277Z,90.18
2017-01-12T05:45:07.779Z,90.44
2017-01-12T05:46:08.398Z,90.64
2017-01-12T05:47:08.036Z,90.05
2017-01-12T05:48:07.671Z,89.73
2017-01-12T05:49:08.192Z,89.90
2017-01-12T05:50:07.790Z,89.44
2017-01-12T05:51:08.475Z,89.82
2017-01-12T05:52:08.156Z,89.54
2017-01-12T05:53:07.839Z,89.33
2017-01-12T05:54:07.698Z,89.03
2017-01-12T05:55:08.317Z,89.32
2017-01-12T05:56:07.865Z,89.26
2017-01-12T05:57:08.090Z,89.10
2017-01-12T05:58:07.548Z,89.00
2017-01-12T05:59:08.067Z,89.11
2017-01-12T06:00:07.872Z,89.17
2017-01-12T06:01:08.678Z,89.67
2017-01-12T06:02:08.486Z,89.68
2017-01-12T06:03:07.978Z,89.46
2017-01-12T06:04:07.518Z,89.38
2017-01-12T06:05:08.630Z,89.46
2017-01-12T06:06:08.079Z,89.15
2017-01-12T06:07:08.052Z,88.90
2017-01-12T06:08:07.939Z,88.75
2017-01-12T06:09:07.482Z,88.96
2017-01-12T06:10:08.019Z,88.73
2017-01-12T06:11:07.512Z,89.05
2017-01-12T06:12:08.345Z,89.18
2017-01-12T06:13:07.937Z,89.56
2017-01-12T06:14:07.742Z,89.62
2017-01-12T06:15:07.869Z,89.43
2017-01-12T06:16:07.599Z,89.40
2017-01-12T06:17:08.005Z,89.00
2017-01-12T06:18:07.561Z,89.55
2017-01-12T06:19:08.187Z,89.49
2017-01-12T06:20:08.098Z,89.25
2017-01-12T06:21:07.582Z,89.48
2017-01-12T06:22:08.157Z,89.83
2017-01-12T06:23:08.052Z,89.49
2017-01-12T06:24:07.719Z,89.61
2017-01-12T06:25:08.240Z,89.36
2017-01-12T06:26:07.720Z,89.40
2017-01-12T06:27:08.334Z,89.10
2017-01-12T06:28:07.881Z,88.31
2017-01-12T06:29:08.760Z,88.16
2017-01-12T06:30:08.304Z,88.74
2017-01-12T06:31:07.760Z,88.67
2017-01-12T06:32:08.423Z,87.99
2017-01-12T06:33:07.713Z,88.16
2017-01-12T06:34:08.448Z,88.49
2017-01-12T06:35:17.880Z,88.57
2017-01-12T06:36:08.915Z,88.30
2017-01-12T06:37:08.469Z,87.79
2017-01-12T06:38:08.597Z,87.92
2017-01-12T06:39:08.232Z,87.66
2017-01-12T06:40:08.249Z,87.54
2017-01-12T06:41:07.711Z,87.64
2017-01-12T06:42:07.662Z,88.21
2017-01-12T06:43:08.176Z,87.70
2017-01-12T06:44:07.731Z,87.28
2017-01-12T06:45:08.407Z,87.18
2017-01-12T06:46:08.200Z,87.04
2017-01-12T06:47:08.092Z,87.17
2017-01-12T06:48:07.588Z,87.12
2017-01-12T06:49:24.468Z,87.30
2017-01-12T06:50:08.283Z,87.30
2017-01-12T06:51:07.783Z,87.57
2017-01-12T06:52:08.504Z,87.34
2017-01-12T06:53:09.086Z,87.75
2017-01-12T06:54:17.653Z,87.34
2017-01-12T06:55:08.535Z,87.31
2017-01-12T06:56:08.170Z,87.41
2017-01-12T06:57:07.971Z,87.28
2017-01-12T06:58:07.490Z,87.09
2017-01-12T06:59:07.945Z,87.60
2017-01-12T07:00:28.947Z,87.97
2017-01-12T07:01:08.478Z,87.34
2017-01-12T07:02:08.264Z,87.45
2017-01-12T07:03:08.355Z,87.63
2017-01-12T07:04:08.026Z,87.57
2017-01-12T07:05:08.982Z,87.99
2017-01-12T07:06:07.510Z,87.94
2017-01-12T07:07:07.971Z,87.91
2017-01-12T07:08:07.574Z,88.50
2017-01-12T07:09:08.487Z,88.58
2017-01-12T07:10:08.305Z,88.25
2017-01-12T07:11:08.033Z,88.62
2017-01-12T07:12:07.555Z,88.99
2017-01-12T07:13:08.323Z,88.67
2017-01-12T07:14:07.846Z,88.53
2017-01-12T07:15:08.490Z,88.82
2017-01-12T07:16:08.410Z,88.70
2017-01-12T07:17:08.185Z,88.62
2017-01-12T07:18:08.194Z,89.33
2017-01-12T07:19:07.898Z,89.18
2017-01-12T07:20:08.688Z,88.78
2017-01-12T07:21:08.496Z,88.84
2017-01-12T07:22:08.325Z,89.40
2017-01-12T07:23:07.887Z,89.22
2017-01-12T07:24:07.944Z,88.97
2017-01-12T07:25:07.660Z,88.87
2017-01-12T07:26:07.970Z,88.88
2017-01-12T07:27:07.643Z,89.17
2017-01-12T07:28:08.279Z,89.59
2017-01-12T07:29:07.483Z,89.25
2017-01-12T07:30:08.168Z,89.36
2017-01-12T07:31:07.677Z,88.93
2017-01-12T07:32:08.257Z,89.44
2017-01-12T07:33:08.148Z,89.90
2017-01-12T07:34:08.028Z,89.26
2017-01-12T07:35:08.754Z,89.83
2017-01-12T07:36:08.274Z,89.61
2017-01-12T07:37:07.984Z,89.85
2017-01-12T07:38:08.495Z,89.79
2017-01-12T07:39:07.823Z,89.72
2017-01-12T07:40:08.450Z,90.54
2017-01-12T07:41:07.576Z,90.43
2017-01-12T07:42:07.464Z,91.01
2017-01-12T07:43:07.961Z,90.94
2017-01-12T07:44:07.769Z,90.72
2017-01-12T07:45:08.668Z,90.57
2017-01-12T07:46:08.573Z,90.48
2017-01-12T07:47:08.082Z,90.45
2017-01-12T07:48:07.777Z,90.12
2017-01-12T07:49:07.698Z,90.78
2017-01-12T07:50:09.181Z,91.76
2017-01-12T07:51:08.029Z,91.78
2017-01-12T07:52:07.599Z,91.27
2017-01-12T07:53:07.446Z,91.28
2017-01-12T07:54:07.940Z,91.92
2017-01-12T07:55:07.391Z,91.28
2017-01-12T07:56:07.930Z,91.22
2017-01-12T07:57:07.775Z,91.08
2017-01-12T07:58:08.296Z,90.68
2017-01-12T07:59:07.981Z,90.57
2017-01-12T08:00:07.758Z,90.94
2017-01-12T08:01:08.212Z,90.30
2017-01-12T08:02:07.676Z,90.93
2017-01-12T08:03:07.716Z,90.75
2017-01-12T08:04:08.360Z,90.72
2017-01-12T08:05:07.562Z,91.05
2017-01-12T08:06:08.420Z,91.04
2017-01-12T08:07:07.932Z,90.56
2017-01-12T08:08:08.676Z,89.93
2017-01-12T08:09:08.416Z,90.07
2017-01-12T08:10:08.277Z,90.12
2017-01-12T08:11:07.753Z,90.36
2017-01-12T08:12:08.182Z,90.25
2017-01-12T08:13:07.618Z,89.79
2017-01-12T08:14:07.799Z,90.09
2017-01-12T08:15:08.648Z,89.75
2017-01-12T08:16:08.402Z,89.59
2017-01-12T08:17:08.052Z,89.30
2017-01-12T08:18:07.576Z,90.00
2017-01-12T08:19:08.109Z,89.76
2017-01-12T08:20:07.826Z,89.95
2017-01-12T08:21:08.608Z,90.19
2017-01-12T08:22:08.476Z,90.16
2017-01-12T08:23:08.112Z,89.71
2017-01-12T08:24:07.710Z,89.68
2017-01-12T08:25:07.865Z,89.73
2017-01-12T08:26:08.337Z,90.05
2017-01-12T08:27:07.979Z,89.90
2017-01-12T08:28:08.427Z,89.54
2017-01-12T08:29:08.240Z,89.00
2017-01-12T08:30:07.745Z,89.01
2017-01-12T08:31:08.639Z,88.54
2017-01-12T08:32:08.574Z,88.55
2017-01-12T08:33:08.449Z,88.31
2017-01-12T08:34:08.098Z,88.77
2017-01-12T08:35:08.368Z,88.87
2017-01-12T08:36:08.057Z,89.02
2017-01-12T08:37:07.699Z,88.93
2017-01-12T08:38:08.245Z,88.79
2017-01-12T08:39:08.157Z,88.49
2017-01-12T08:40:08.579Z,88.68
2017-01-12T08:41:08.066Z,88.33
2017-01-12T08:42:07.965Z,88.62
2017-01-12T08:43:07.718Z,88.36
2017-01-12T08:44:08.278Z,88.38
2017-01-12T08:45:08.008Z,88.66
2017-01-12T08:46:07.810Z,89.06
2017-01-12T08:47:08.509Z,88.89
2017-01-12T08:48:08.157Z,88.83
2017-01-12T08:49:07.923Z,88.86
2017-01-12T08:50:08.361Z,88.75
2017-01-12T08:51:07.919Z,88.81
2017-01-12T08:52:08.399Z,88.52
2017-01-12T08:53:08.204Z,88.35
2017-01-12T08:54:08.140Z,88.08
2017-01-12T08:55:07.691Z,87.78
2017-01-12T08:56:08.418Z,88.37
2017-01-12T08:57:08.282Z,88.24
2017-01-12T08:58:07.804Z,88.48
2017-01-12T08:59:08.481Z,88.55
2017-01-12T09:00:08.165Z,88.33
2017-01-12T09:01:07.666Z,88.16
2017-01-12T09:02:08.177Z,88.30
2017-01-12T09:03:08.583Z,88.71
2017-01-12T09:04:08.278Z,88.29
2017-01-12T09:05:07.763Z,87.88
2017-01-12T09:06:08.563Z,88.14
2017-01-12T09:07:08.338Z,87.89
2017-01-12T09:08:07.782Z,87.33
2017-01-12T09:09:08.352Z,87.02
2017-01-12T09:10:07.973Z,87.08
2017-01-12T09:11:07.491Z,87.27
2017-01-12T09:12:08.032Z,87.49
2017-01-12T09:13:07.931Z,87.81
2017-01-12T09:14:07.503Z,87.33
2017-01-12T09:15:08.090Z,87.01
2017-01-12T09:16:08.340Z,87.10
2017-01-12T09:17:08.208Z,86.66
2017-01-12T09:18:08.009Z,86.37
2017-01-12T09:19:07.449Z,86.41
2017-01-12T09:20:08.333Z,86.01
2017-01-12T09:21:07.886Z,85.96
2017-01-12T09:22:08.413Z,85.65
2017-01-12T09:23:08.014Z,85.60
2017-01-12T09:24:08.334Z,85.80
2017-01-12T09:25:07.843Z,85.52
2017-01-12T09:26:08.464Z,85.74
2017-01-12T09:27:07.969Z,85.72
2017-01-12T09:28:07.611Z,85.49
2017-01-12T09:29:08.167Z,85.99
2017-01-12T09:30:07.692Z,85.40
2017-01-12T09:31:08.245Z,85.79
2017-01-12T09:32:07.751Z,85.08
2017-01-12T09:33:08.277Z,84.66
2017-01-12T09:34:08.354Z,84.56
2017-01-12T09:35:08.015Z,84.41
2017-01-12T09:36:07.497Z,85.17
2017-01-12T09:37:08.016Z,84.85
2017-01-12T09:38:07.488Z,84.77
2017-01-12T09:39:08.028Z,84.96
2017-01-12T09:40:07.986Z,84.59
2017-01-12T09:41:07.730Z,84.30
2017-01-12T09:42:08.541Z,83.98
2017-01-12T09:43:08.388Z,84.06
2017-01-12T09:44:08.013Z,83.88
2017-01-12T09:45:07.558Z,83.93
2017-01-12T09:46:08.207Z,83.61
2017-01-12T09:47:07.955Z,83.14
2017-01-12T09:48:07.469Z,82.75
2017-01-12T09:49:07.953Z,83.28
2017-01-12T09:50:07.687Z,83.78
2017-01-12T09:51:08.469Z,83.65
2017-01-12T09:52:08.093Z,83.39
2017-01-12T09:53:07.598Z,83.68
2017-01-12T09:54:08.426Z,83.12
2017-01-12T09:55:07.961Z,83.00
2017-01-12T09:56:07.642Z,83.08
2017-01-12T09:57:07.942Z,82.77
2017-01-12T09:58:08.778Z,82.79
2017-01-12T09:59:08.317Z,82.36
2017-01-12T10:00:07.864Z,82.36
2017-01-12T10:01:08.497Z,82.37
2017-01-12T10:02:07.748Z,82.26
2017-01-12T10:03:08.516Z,81.27
2017-01-12T10:04:08.279Z,80.97
2017-01-12T10:05:08.042Z,81.63
2017-01-12T10:06:07.634Z,81.33
2017-01-12T10:07:08.396Z,81.61
2017-01-12T10:08:08.126Z,81.80
2017-01-12T10:09:07.939Z,82.02
2017-01-12T10:10:08.780Z,81.40
2017-01-12T10:11:08.332Z,81.11
2017-01-12T10:12:07.846Z,80.85
2017-01-12T10:13:08.776Z,81.05
2017-01-12T10:14:08.547Z,80.30
2017-01-12T10:15:08.050Z,80.06
2017-01-12T10:16:08.049Z,80.47
2017-01-12T10:17:07.756Z,80.42
2017-01-12T10:18:08.271Z,80.08
2017-01-12T10:19:08.067Z,80.39
2017-01-12T10:20:07.793Z,80.71
2017-01-12T10:21:07.958Z,80.51
2017-01-12T10:22:08.195Z,80.92
2017-01-12T10:23:08.010Z,80.70
2017-01-12T10:24:07.561Z,80.55
2017-01-12T10:25:08.134Z,80.58
2017-01-12T10:26:08.125Z,80.54
2017-01-12T10:27:07.908Z,79.84
2017-01-12T10:28:08.557Z,79.22
2017-01-12T10:29:08.225Z,78.86
2017-01-12T10:30:08.243Z,79.57
2017-01-12T10:31:08.074Z,79.60
2017-01-12T10:32:07.661Z,79.87
2017-01-12T10:33:08.159Z,79.79
2017-01-12T10:34:07.906Z,79.71
2017-01-12T10:35:08.810Z,79.10
2017-01-12T10:36:08.474Z,78.81
2017-01-12T10:37:07.897Z,79.11
2017-01-12T10:38:08.434Z,79.43
2017-01-12T10:39:07.882Z,78.93
2017-01-12T10:40:08.756Z,78.51
2017-01-12T10:41:08.323Z,78.56
2017-01-12T10:42:08.147Z,78.71
2017-01-12T10:43:08.743Z,78.50
2017-01-12T10:44:08.487Z,78.28
2017-01-12T10:45:08.241Z,78.64
2017-01-12T10:46:07.681Z,77.94
2017-01-12T10:47:07.838Z,78.02
2017-01-12T10:48:08.405Z,77.63
2017-01-12T10:49:07.940Z,77.60
2017-01-12T10:50:08.765Z,77.36
2017-01-12T10:51:08.490Z,77.26
2017-01-12T10:52:08.091Z,76.88
2017-01-12T10:53:07.615Z,77.19
2017-01-12T10:54:08.669Z,76.83
2017-01-12T10:55:08.264Z,76.76
2017-01-12T10:56:08.682Z,76.76
2017-01-12T10:57:08.225Z,77.08
2017-01-12T10:58:07.613Z,76.97
2017-01-12T10:59:08.169Z,76.78
2017-01-12T11:00:07.728Z,77.05
2017-01-12T11:01:08.363Z,76.86
2017-01-12T11:02:08.222Z,76.97
2017-01-12T11:03:07.684Z,76.97
2017-01-12T11:04:08.007Z,77.23
2017-01-12T11:05:07.553Z,76.39
2017-01-12T11:06:08.374Z,76.07
2017-01-12T11:07:07.600Z,76.27
2017-01-12T11:08:08.528Z,76.03
2017-01-12T11:09:08.110Z,75.99
2017-01-12T11:10:07.598Z,76.08
2017-01-12T11:11:08.135Z,75.70
2017-01-12T11:12:07.663Z,75.61
2017-01-12T11:13:08.136Z,75.69
2017-01-12T11:14:07.668Z,75.42
2017-01-12T11:15:08.365Z,75.44
2017-01-12T11:16:08.141Z,76.29
2017-01-12T11:17:07.912Z,76.29
2017-01-12T11:18:07.809Z,76.45
2017-01-12T11:19:07.430Z,76.35
2017-01-12T11:20:08.485Z,75.83
2017-01-12T11:21:08.125Z,74.81
2017-01-12T11:22:07.797Z,75.09
2017-01-12T11:23:08.510Z,75.28
2017-01-12T11:24:08.319Z,75.21
2017-01-12T11:25:08.080Z,74.82
2017-01-12T11:26:07.761Z,75.05
2017-01-12T11:27:08.276Z,74.63
2017-01-12T11:28:07.852Z,74.84
2017-01-12T11:29:08.509Z,74.56
2017-01-12T11:30:08.360Z,74.91
2017-01-12T11:31:08.445Z,74.68
2017-01-12T11:32:08.000Z,73.90
2017-01-12T11:33:08.465Z,74.32
2017-01-12T11:34:08.143Z,74.75
2017-01-12T11:35:26.251Z,74.66
2017-01-12T11:36:08.058Z,74.40
2017-01-12T11:37:07.903Z,74.25
2017-01-12T11:38:08.392Z,74.02
2017-01-12T11:39:08.011Z,73.41
2017-01-12T11:40:07.720Z,73.48
2017-01-12T11:41:08.294Z,73.60
2017-01-12T11:42:08.149Z,73.01
2017-01-12T11:43:07.672Z,73.38
2017-01-12T11:44:07.930Z,74.00
2017-01-12T11:45:07.525Z,73.96
2017-01-12T11:46:08.108Z,73.06
2017-01-12T11:47:08.065Z,73.41
2017-01-12T11:48:07.634Z,73.83
2017-01-12T11:49:08.420Z,73.49
2017-01-12T11:50:08.128Z,73.05
2017-01-12T11:51:07.611Z,73.62
2017-01-12T11:52:08.378Z,73.15
2017-01-12T11:53:07.956Z,72.83
2017-01-12T11:54:07.455Z,72.59
2017-01-12T11:55:07.981Z,72.63
2017-01-12T11:56:07.603Z,72.63
2017-01-12T11:57:08.532Z,72.62
2017-01-12T11:58:08.317Z,72.78
2017-01-12T11:59:07.886Z,73.05
2017-01-12T12:00:07.873Z,72.38
2017-01-12T12:01:08.518Z,72.44
2017-01-12T12:02:08.286Z,73.02
2017-01-12T12:03:07.728Z,72.76
2017-01-12T12:04:08.423Z,72.37
2017-01-12T12:05:08.445Z,72.41
2017-01-12T12:06:08.263Z,72.55
2017-01-12T12:07:07.857Z,72.59
2017-01-12T12:08:08.443Z,72.33
2017-01-12T12:09:08.008Z,72.06
2017-01-12T12:10:07.464Z,71.79
2017-01-12T12:11:08.209Z,71.98
2017-01-12T12:12:07.874Z,71.92
2017-01-12T12:13:08.743Z,71.88
2017-01-12T12:14:08.596Z,71.91
2017-01-12T12:15:08.181Z,71.58
2017-01-12T12:16:07.923Z,71.57
2017-01-12T12:17:07.658Z,71.62
2017-01-12T12:18:07.640Z,71.49
2017-01-12T12:19:08.193Z,70.76
2017-01-12T12:20:07.661Z,70.62
2017-01-12T12:21:08.358Z,70.56
2017-01-12T12:22:08.205Z,70.91
2017-01-12T12:23:07.988Z,70.77
2017-01-12T12:24:07.538Z,70.38
2017-01-12T12:25:08.557Z,69.72
2017-01-12T12:26:08.107Z,70.06
2017-01-12T12:27:07.597Z,70.07
2017-01-12T12:28:08.220Z,70.86
2017-01-12T12:29:08.116Z,70.80
2017-01-12T12:30:07.618Z,71.18
2017-01-12T12:31:08.347Z,71.00
2017-01-12T12:32:08.042Z,71.34
2017-01-12T12:33:07.917Z,71.01
2017-01-12T12:34:07.626Z,71.26
2017-01-12T12:35:08.165Z,70.73
2017-01-12T12:36:07.702Z,70.41
2017-01-12T12:37:08.281Z,69.86
2017-01-12T12:38:08.134Z,69.78
2017-01-12T12:39:07.753Z,69.78
2017-01-12T12:40:08.299Z,70.05
2017-01-12T12:41:08.075Z,70.16
2017-01-12T12:42:07.591Z,70.36
2017-01-12T12:43:08.856Z,70.05
2017-01-12T12:44:08.465Z,70.04
2017-01-12T12:45:08.226Z,70.16
2017-01-12T12:46:07.703Z,70.12
2017-01-12T12:47:08.457Z,70.28
2017-01-12T12:48:08.095Z,70.62
2017-01-12T12:49:07.917Z,70.23
2017-01-12T12:50:07.434Z,69.99
2017-01-12T12:51:08.054Z,69.51
2017-01-12T12:52:07.860Z,69.87
2017-01-12T12:53:08.844Z,70.44